Time;durP1;ratioP1;P1;durP2;ratioP2;P2;SDS_P1;SDS_P2;PMS_P1;PMS_P2;Temp;Humidity;BMP_temperature;BMP_pressure;BME280_temperature;BME280_humidity;BME280_pressure;Samples;Min_cycle;Max_cycle;Signal;HPM_P1;HPM_P2
2022/06/13 00:00:29;;;;;;;;;4.00;3.00;;;;;18.97;49.18;102091.41;5069490;28;45448;-50
2022/06/13 00:02:54;;;;;;;;;2.25;1.25;;;;;18.93;49.61;102087.22;5069051;28;45423;-49
2022/06/13 00:05:20;;;;;;;;;3.25;2.00;;;;;18.90;49.64;102085.66;5071912;28;45424;-53
2022/06/13 00:07:46;;;;;;;;;2.50;2.00;;;;;18.84;49.48;102086.09;5070377;28;46371;-49
2022/06/13 00:10:12;;;;;;;;;2.00;2.00;;;;;18.80;49.80;102089.06;5069178;27;45801;-50
2022/06/13 00:12:39;;;;;;;;;4.25;1.50;;;;;18.78;49.81;102093.69;5068953;28;45505;-48
2022/06/13 00:15:06;;;;;;;;;2.00;1.00;;;;;18.77;49.73;102091.97;5071525;28;46230;-49
2022/06/13 00:17:31;;;;;;;;;1.50;1.50;;;;;18.76;49.72;102099.13;5071591;28;45474;-52
2022/06/13 00:19:56;;;;;;;;;2.75;2.25;;;;;18.73;50.04;102095.84;5072127;28;45473;-50
2022/06/13 00:22:22;;;;;;;;;4.50;2.00;;;;;18.73;49.90;102090.50;5070161;28;45426;-48
2022/06/13 00:24:47;;;;;;;;;5.00;2.00;;;;;18.73;49.91;102090.50;5070244;28;45397;-51
2022/06/13 00:27:13;;;;;;;;;2.50;2.00;;;;;18.67;50.21;102089.13;5069253;28;45395;-50
2022/06/13 00:29:38;;;;;;;;;3.00;3.00;;;;;18.62;50.37;102092.06;5069057;28;46307;-49
2022/06/13 00:32:05;;;;;;;;;3.50;3.00;;;;;18.57;50.42;102093.41;5070951;28;45420;-50
2022/06/13 00:34:30;;;;;;;;;6.50;3.00;;;;;18.50;50.47;102089.47;5071595;28;46148;-52
2022/06/13 00:36:56;;;;;;;;;5.00;3.00;;;;;18.47;50.31;102082.50;5070531;28;45541;-51
2022/06/13 00:39:21;;;;;;;;;2.75;2.00;;;;;18.41;50.38;102082.97;5069529;28;45438;-52
2022/06/13 00:41:48;;;;;;;;;5.00;3.00;;;;;18.38;50.55;102086.69;5067953;28;45914;-49
2022/06/13 00:44:30;;;;;;;;;6.25;3.00;;;;;18.33;50.69;102083.50;5071320;27;45390;-48
2022/06/13 00:46:56;;;;;;;;;5.00;3.00;;;;;18.29;50.64;102079.31;5070512;28;45414;-52
2022/06/13 00:49:21;;;;;;;;;4.50;3.25;;;;;18.32;50.73;102072.91;5070816;28;45441;-51
2022/06/13 00:51:54;;;;;;;;;2.50;2.00;;;;;18.33;50.79;102075.50;5070557;28;45622;-51
2022/06/13 00:54:22;;;;;;;;;5.25;3.50;;;;;18.32;50.81;102075.56;5069317;28;46185;-49
2022/06/13 00:56:50;;;;;;;;;2.25;2.00;;;;;18.31;51.20;102065.88;5070290;28;45211;-46
2022/06/13 00:59:20;;;;;;;;;4.00;2.50;;;;;18.32;51.06;102062.25;5072392;28;45445;-47
2022/06/13 01:01:46;;;;;;;;;3.25;2.00;;;;;18.31;51.18;102057.88;5071123;28;45438;-47
2022/06/13 01:04:12;;;;;;;;;5.00;3.75;;;;;18.29;51.28;102060.66;5070629;28;46248;-47
2022/06/13 01:06:49;;;;;;;;;5.25;3.00;;;;;18.27;51.27;102051.06;5070015;28;45435;-51
2022/06/13 01:09:17;;;;;;;;;7.50;4.00;;;;;18.23;51.41;102060.22;5069315;27;45649;-48
2022/06/13 01:11:52;;;;;;;;;3.25;2.25;;;;;18.20;51.40;102055.97;5070062;28;45461;-51
2022/06/13 01:14:20;;;;;;;;;6.25;1.25;;;;;18.19;51.44;102058.75;5069624;28;45664;-46
2022/06/13 01:16:59;;;;;;;;;3.00;2.00;;;;;18.16;51.52;102057.13;5067801;28;45381;-48
2022/06/13 01:19:30;;;;;;;;;3.75;2.00;;;;;18.14;51.96;102059.91;5071702;28;45362;-47
2022/06/13 01:22:17;;;;;;;;;3.00;3.00;;;;;18.12;52.10;102056.50;5072673;28;45306;-48
2022/06/13 01:25:07;;;;;;;;;4.00;2.75;;;;;18.10;51.99;102057.59;5069434;28;45421;-54
2022/06/13 01:27:42;;;;;;;;;3.50;3.25;;;;;18.10;51.83;102052.25;5066589;28;45409;-50
2022/06/13 01:30:33;;;;;;;;;4.75;3.25;;;;;18.07;52.10;102042.63;5070252;28;45388;-52
2022/06/13 01:33:24;;;;;;;;;4.75;3.00;;;;;18.01;52.10;102043.09;5071927;28;45472;-49
2022/06/13 01:35:50;;;;;;;;;4.00;2.00;;;;;18.00;52.32;102040.50;5067038;28;45476;-48
2022/06/13 01:38:27;;;;;;;;;4.00;2.00;;;;;17.99;52.32;102041.47;5070748;28;45443;-50
2022/06/13 01:41:21;;;;;;;;;5.75;2.75;;;;;17.95;52.39;102043.50;5067450;28;45288;-50
2022/06/13 01:43:53;;;;;;;;;6.75;4.25;;;;;17.86;52.33;102049.47;5071269;28;45425;-48
2022/06/13 01:46:33;;;;;;;;;3.50;3.00;;;;;17.78;52.63;102049.16;5069904;28;45422;-50
2022/06/13 01:49:35;;;;;;;;;7.00;4.00;;;;;17.76;52.98;102051.06;5068368;28;45351;-53
2022/06/13 01:52:03;;;;;;;;;5.00;3.00;;;;;17.74;52.90;102051.16;5068069;28;45373;-52
2022/06/13 01:54:52;;;;;;;;;4.25;2.50;;;;;17.71;53.12;102058.53;5069058;28;45660;-52
2022/06/13 01:57:25;;;;;;;;;5.75;4.00;;;;;17.64;53.00;102060.72;5068764;28;45375;-48
2022/06/13 02:00:04;;;;;;;;;7.50;4.00;;;;;17.61;53.02;102058.25;5067904;27;45353;-49
2022/06/13 02:02:48;;;;;;;;;7.50;4.50;;;;;17.61;53.24;102060.06;5067588;28;45381;-51
2022/06/13 02:05:29;;;;;;;;;3.75;3.00;;;;;17.62;53.48;102059.13;5066818;28;45495;-47
2022/06/13 02:08:17;;;;;;;;;4.75;3.00;;;;;17.60;53.56;102051.22;5068946;28;46307;-49
2022/06/13 02:10:47;;;;;;;;;7.00;4.00;;;;;17.58;53.72;102047.81;5069656;28;45320;-48
2022/06/13 02:13:26;;;;;;;;;6.50;4.00;;;;;17.56;53.85;102052.41;5067127;28;45276;-48
2022/06/13 02:15:55;;;;;;;;;6.00;4.50;;;;;17.54;53.91;102056.97;5066873;28;45378;-48
2022/06/13 02:18:27;;;;;;;;;7.25;4.00;;;;;17.55;53.87;102058.69;5074739;28;45245;-48
2022/06/13 02:20:59;;;;;;;;;2.00;2.00;;;;;17.53;53.91;102045.44;5070390;28;45518;-48
2022/06/13 02:23:29;;;;;;;;;6.00;5.00;;;;;17.52;53.84;102048.22;5071391;28;45748;-46
2022/06/13 02:26:10;;;;;;;;;5.00;3.00;;;;;17.49;54.05;102048.44;5067354;28;45478;-49
2022/06/13 02:28:56;;;;;;;;;5.75;5.00;;;;;17.48;54.17;102041.41;5066864;28;45228;-49
2022/06/13 02:31:34;;;;;;;;;5.75;4.25;;;;;17.44;54.20;102043.41;5087235;27;45433;-47
2022/06/13 02:34:11;;;;;;;;;6.00;4.00;;;;;17.43;54.21;102052.34;5068563;28;45540;-48
2022/06/13 02:36:55;;;;;;;;;6.75;5.00;;;;;17.43;54.47;102048.84;5069115;28;45259;-48
2022/06/13 02:39:37;;;;;;;;;5.50;4.00;;;;;17.36;54.56;102045.72;5067350;28;45422;-48
2022/06/13 02:42:11;;;;;;;;;9.50;6.00;;;;;17.34;54.80;102050.31;5068776;28;45366;-48
2022/06/13 02:45:19;;;;;;;;;9.00;5.25;;;;;17.33;54.84;102045.94;5060378;28;45410;-51
2022/06/13 02:48:00;;;;;;;;;7.50;6.25;;;;;17.27;54.95;102044.53;5040258;28;45495;-53
2022/06/13 02:50:36;;;;;;;;;5.75;4.00;;;;;17.23;54.85;102050.19;5060393;28;45298;-49
2022/06/13 02:53:15;;;;;;;;;9.00;6.25;;;;;17.19;55.08;102052.19;5060325;28;45388;-50
2022/06/13 02:55:45;;;;;;;;;8.75;6.25;;;;;17.17;55.21;102048.78;5060322;28;45328;-51
2022/06/13 02:58:26;;;;;;;;;7.50;7.00;;;;;17.17;55.45;102047.91;5060780;28;45158;-51
2022/06/13 03:00:54;;;;;;;;;6.00;4.75;;;;;17.15;55.49;102044.50;5060051;28;46103;-51
2022/06/13 03:03:35;;;;;;;;;7.50;6.25;;;;;17.14;55.60;102040.13;5060056;28;45268;-49
2022/06/13 03:06:14;;;;;;;;;10.25;6.50;;;;;17.16;55.53;102054.22;5060236;28;45284;-51
2022/06/13 03:09:05;;;;;;;;;6.75;4.50;;;;;17.14;55.69;102056.09;5058704;28;45205;-49
2022/06/13 03:12:09;;;;;;;;;8.25;5.50;;;;;17.10;55.80;102055.47;5059981;28;45570;-47
2022/06/13 03:14:44;;;;;;;;;4.50;3.00;;;;;17.10;55.87;102059.94;5062098;28;45327;-48
2022/06/13 03:17:32;;;;;;;;;10.25;6.00;;;;;17.10;56.06;102068.78;5063627;28;45353;-50
2022/06/13 03:20:01;;;;;;;;;4.75;4.00;;;;;17.10;56.04;102062.59;5064009;28;45369;-49
2022/06/13 03:22:47;;;;;;;;;8.50;4.75;;;;;17.12;56.02;102066.00;5063587;28;46325;-48
2022/06/13 03:25:24;;;;;;;;;6.25;5.00;;;;;17.06;56.02;102063.72;5063034;28;45272;-47
2022/06/13 03:27:58;;;;;;;;;5.50;4.50;;;;;17.02;56.09;102071.06;5063671;28;45517;-47
2022/06/13 03:30:30;;;;;;;;;5.50;4.00;;;;;17.05;56.23;102072.69;5063761;28;45319;-48
2022/06/13 03:35:51;;;;;;;;;5.25;2.00;;;;;17.02;56.44;102077.25;5063356;28;45408;-49
2022/06/13 03:38:25;;;;;;;;;3.00;3.00;;;;;17.00;56.52;102087.16;5063088;28;45365;-52
2022/06/13 03:40:54;;;;;;;;;4.25;4.25;;;;;17.01;56.50;102088.88;5063188;28;45255;-48
2022/06/13 03:43:27;;;;;;;;;6.25;3.50;;;;;17.00;56.49;102091.63;5063280;28;45966;-51
2022/06/13 03:46:01;;;;;;;;;6.50;3.75;;;;;16.98;56.58;102088.19;5063060;28;45228;-48
2022/06/13 03:48:39;;;;;;;;;6.00;5.00;;;;;16.97;56.79;102089.16;5063370;28;45346;-51
2022/06/13 03:51:13;;;;;;;;;5.00;3.50;;;;;16.95;56.82;102096.38;5063089;28;45253;-50
2022/06/13 03:53:45;;;;;;;;;8.50;4.75;;;;;16.94;56.88;102098.19;5062866;28;45473;-49
2022/06/13 03:56:23;;;;;;;;;5.00;4.00;;;;;16.92;56.82;102096.59;5062867;28;45371;-47
2022/06/13 03:59:09;;;;;;;;;4.00;4.00;;;;;16.87;57.04;102093.38;5062954;28;45334;-47
2022/06/13 04:01:52;;;;;;;;;6.50;4.75;;;;;16.87;57.04;102091.56;5063043;28;45542;-47
2022/06/13 04:04:21;;;;;;;;;9.00;6.50;;;;;16.84;57.20;102097.09;5062965;28;45369;-50
2022/06/13 04:06:47;;;;;;;;;8.00;4.25;;;;;16.84;57.27;102090.91;5062685;28;45334;-52
2022/06/13 04:09:20;;;;;;;;;5.75;5.00;;;;;16.85;57.39;102089.97;5062812;28;45371;-48
2022/06/13 04:11:53;;;;;;;;;10.00;5.25;;;;;16.83;57.35;102095.38;5062599;28;45373;-48
2022/06/13 04:14:18;;;;;;;;;7.50;4.25;;;;;16.81;57.39;102091.94;5062777;28;45516;-49
2022/06/13 04:16:57;;;;;;;;;6.00;5.75;;;;;16.78;57.53;102089.50;5062616;28;45438;-52
2022/06/13 04:19:37;;;;;;;;;6.00;5.00;;;;;16.77;57.61;102087.78;5064371;28;45339;-50
2022/06/13 04:22:22;;;;;;;;;5.25;4.00;;;;;16.76;57.65;102087.88;5063081;28;45363;-50
2022/06/13 04:25:04;;;;;;;;;7.00;4.00;;;;;16.72;57.76;102088.06;5061942;28;45414;-50
2022/06/13 04:27:33;;;;;;;;;7.00;5.50;;;;;16.71;57.83;102090.81;5062685;28;45362;-51
2022/06/13 04:30:10;;;;;;;;;8.50;5.00;;;;;16.71;57.92;102090.81;5062626;28;45243;-51
2022/06/13 04:32:51;;;;;;;;;11.00;5.75;;;;;16.71;58.06;102094.34;5062349;28;45317;-46
2022/06/13 04:35:18;;;;;;;;;9.50;8.00;;;;;16.72;57.96;102093.38;5062338;28;45330;-48
2022/06/13 04:37:45;;;;;;;;;8.50;5.25;;;;;16.74;58.11;102094.13;5062434;28;45346;-47
2022/06/13 04:40:20;;;;;;;;;8.25;8.00;;;;;16.76;57.95;102098.53;5062151;28;45335;-47
2022/06/13 04:42:48;;;;;;;;;8.75;6.50;;;;;16.78;58.25;102099.28;5062436;28;45383;-51
2022/06/13 04:45:26;;;;;;;;;7.25;5.25;;;;;16.77;58.31;102089.59;5062143;28;46332;-47
2022/06/13 04:47:54;;;;;;;;;9.75;7.00;;;;;16.74;58.46;102096.78;5062077;28;45600;-49
2022/06/13 04:50:39;;;;;;;;;11.25;5.25;;;;;16.78;58.38;102101.94;5062195;28;45504;-49
2022/06/13 04:53:12;;;;;;;;;8.00;8.00;;;;;16.77;58.39;102103.75;5061955;28;45570;-49
2022/06/13 04:55:44;;;;;;;;;8.00;6.00;;;;;16.81;58.49;102104.41;5061884;28;45299;-52
2022/06/13 04:58:38;;;;;;;;;8.25;6.00;;;;;16.79;58.51;102104.50;5062164;28;45449;-48
2022/06/13 05:01:14;;;;;;;;;12.75;6.50;;;;;16.76;58.69;102103.84;5061768;28;45216;-48
2022/06/13 05:03:43;;;;;;;;;10.25;6.50;;;;;16.77;58.74;102110.88;5061878;28;45452;-51
2022/06/13 05:06:19;;;;;;;;;7.00;5.00;;;;;16.79;58.72;102111.63;5061851;28;46248;-46
2022/06/13 05:08:44;;;;;;;;;12.50;7.00;;;;;16.81;58.71;102115.88;5061426;28;45396;-50
2022/06/13 05:11:18;;;;;;;;;11.00;8.00;;;;;16.83;58.68;102115.81;5061772;28;45422;-50
2022/06/13 05:13:48;;;;;;;;;10.75;6.50;;;;;16.82;58.74;102119.41;5061959;28;45307;-49
2022/06/13 05:16:37;;;;;;;;;9.00;6.50;;;;;16.84;58.92;102117.53;5061770;28;45592;-47
2022/06/13 05:19:39;;;;;;;;;9.00;7.00;;;;;16.84;59.05;102125.50;5050206;28;45497;-51
2022/06/13 05:22:20;;;;;;;;;7.50;3.50;;;;;16.87;58.96;102122.63;5069340;28;45580;-48
2022/06/13 05:25:23;;;;;;;;;7.00;6.00;;;;;16.91;59.06;102118.84;5067251;28;46436;-48
2022/06/13 05:27:49;;;;;;;;;11.00;7.25;;;;;16.94;59.06;102116.81;5069195;28;46176;-51
2022/06/13 05:30:17;;;;;;;;;12.00;7.00;;;;;17.01;59.05;102115.50;5064847;28;45489;-50
2022/06/13 05:32:43;;;;;;;;;9.75;6.00;;;;;17.09;59.10;102122.13;5067259;28;45319;-48
2022/06/13 05:35:22;;;;;;;;;10.25;6.75;;;;;17.19;59.26;102129.41;5061952;28;45495;-48
2022/06/13 05:37:50;;;;;;;;;8.25;6.00;;;;;17.29;59.29;102119.84;5064175;28;45412;-45
2022/06/13 05:40:18;;;;;;;;;14.25;7.75;;;;;17.41;59.30;102128.00;5062324;28;45437;-44
2022/06/13 05:42:44;;;;;;;;;10.75;6.75;;;;;17.48;59.35;102131.97;5064827;28;45303;-46
2022/06/13 05:45:15;;;;;;;;;9.00;7.00;;;;;17.58;59.07;102128.59;5062124;28;45581;-44
2022/06/13 05:47:44;;;;;;;;;16.50;9.75;;;;;17.65;59.25;102137.03;5062283;28;46211;-45
2022/06/13 05:50:15;;;;;;;;;14.25;8.50;;;;;17.72;59.35;102134.84;5061177;28;45219;-46
2022/06/13 05:52:41;;;;;;;;;9.50;8.00;;;;;17.77;59.29;102138.94;5060954;28;45239;-45
2022/06/13 05:55:07;;;;;;;;;10.25;9.25;;;;;17.80;59.05;102144.03;5060999;28;45562;-46
2022/06/13 05:57:33;;;;;;;;;10.00;8.75;;;;;17.82;59.13;102143.94;5060879;28;46031;-45
2022/06/13 05:59:58;;;;;;;;;11.00;8.00;;;;;17.85;59.07;102136.59;5061235;28;45340;-45
2022/06/13 06:02:24;;;;;;;;;9.75;8.25;;;;;17.91;59.02;102143.31;5060970;28;45465;-47
2022/06/13 06:04:49;;;;;;;;;8.00;7.00;;;;;17.95;59.10;102139.50;5060992;28;45500;-45
2022/06/13 06:07:14;;;;;;;;;10.50;6.75;;;;;17.98;59.27;102146.41;5060879;28;45874;-43
2022/06/13 06:09:40;;;;;;;;;10.75;9.75;;;;;18.03;59.06;102146.97;5060721;28;45359;-43
2022/06/13 06:12:06;;;;;;;;;14.50;8.50;;;;;18.07;59.33;102146.63;5073113;28;45333;-43
2022/06/13 06:14:31;;;;;;;;;15.25;9.75;;;;;18.12;59.01;102149.84;5061224;28;45555;-44
2022/06/13 06:16:57;;;;;;;;;14.50;8.00;;;;;18.19;59.34;102141.44;5060585;28;45437;-44
2022/06/13 06:19:22;;;;;;;;;12.50;9.00;;;;;18.27;59.17;102153.28;5060854;28;45491;-47
2022/06/13 06:21:48;;;;;;;;;10.00;8.25;;;;;18.34;59.35;102151.91;5063426;28;45318;-51
2022/06/13 06:24:13;;;;;;;;;9.25;6.75;;;;;18.40;59.22;102154.13;5060704;28;45478;-45
2022/06/13 06:26:39;;;;;;;;;9.25;9.25;;;;;18.43;59.17;102163.75;5060643;28;45346;-49
2022/06/13 06:29:04;;;;;;;;;7.50;6.50;;;;;18.43;58.80;102161.06;5060630;28;45334;-46
2022/06/13 06:31:32;;;;;;;;;9.50;6.75;;;;;18.50;59.09;102166.84;5060236;28;45340;-48
2022/06/13 06:33:57;;;;;;;;;11.25;8.25;;;;;18.53;59.02;102158.59;5060837;28;45481;-46
2022/06/13 06:36:23;;;;;;;;;12.25;8.00;;;;;18.59;58.85;102160.84;5060455;28;45224;-46
2022/06/13 06:38:48;;;;;;;;;9.25;6.00;;;;;18.66;58.64;102162.16;5060266;28;45385;-47
2022/06/13 06:41:14;;;;;;;;;8.25;6.00;;;;;18.68;58.67;102165.56;5060182;28;45276;-47
2022/06/13 06:43:39;;;;;;;;;6.50;6.25;;;;;18.72;58.71;102167.03;5060739;28;45263;-47
2022/06/13 06:46:05;;;;;;;;;10.00;7.25;;;;;18.76;58.85;102171.22;5054963;28;46021;-48
2022/06/13 06:48:30;;;;;;;;;7.50;4.00;;;;;18.83;58.61;102176.97;5061271;28;45291;-49
2022/06/13 06:50:56;;;;;;;;;10.25;5.00;;;;;18.84;58.72;102182.19;5062850;28;45249;-53
2022/06/13 06:53:25;;;;;;;;;11.00;4.25;;;;;18.89;58.92;102184.56;5062839;28;46238;-47
2022/06/13 07:01:21;;;;;;;;;9.50;6.00;;;;;19.07;58.39;102177.88;5073116;28;45422;-49
2022/06/13 07:03:47;;;;;;;;;10.00;8.00;;;;;19.13;58.17;102182.78;5069624;28;45473;-50
2022/06/13 07:06:15;;;;;;;;;9.50;7.25;;;;;19.17;58.66;102186.94;5073923;28;46196;-48
2022/06/13 07:08:41;;;;;;;;;7.25;5.00;;;;;19.21;58.31;102195.59;5065081;28;45480;-47
2022/06/13 07:13:56;;;;;;;;;7.00;4.25;;;;;19.28;58.41;102183.50;5062953;28;45310;-46
2022/06/13 07:16:21;;;;;;;;;9.25;4.25;;;;;19.40;58.02;102187.06;5062804;28;46325;-51
2022/06/13 07:18:46;;;;;;;;;7.50;6.00;;;;;19.50;58.18;102182.75;5063151;28;45295;-50
2022/06/13 07:21:15;;;;;;;;;8.00;5.00;;;;;19.59;57.85;102178.56;5066522;28;45244;-50
2022/06/13 07:23:41;;;;;;;;;12.00;8.00;;;;;19.63;58.15;102174.72;5062688;28;45436;-52
2022/06/13 07:26:07;;;;;;;;;8.75;6.25;;;;;19.67;58.13;102184.19;5063091;28;45471;-51
2022/06/13 07:28:32;;;;;;;;;9.00;6.50;;;;;19.69;57.98;102185.81;5063234;28;45393;-51
2022/06/13 07:30:58;;;;;;;;;7.50;5.75;;;;;19.66;57.87;102182.50;5062914;28;45551;-49
2022/06/13 07:33:24;;;;;;;;;7.75;6.00;;;;;19.66;57.66;102180.69;5063379;28;45390;-48
2022/06/13 07:35:49;;;;;;;;;9.25;6.00;;;;;19.68;57.46;102183.25;5063074;28;45486;-51
2022/06/13 07:38:18;;;;;;;;;7.75;4.50;;;;;19.78;57.40;102181.59;5063037;28;45304;-48
2022/06/13 07:40:53;;;;;;;;;5.75;4.75;;;;;19.89;57.71;102180.78;5062940;28;45444;-50
2022/06/13 07:43:28;;;;;;;;;7.00;4.25;;;;;19.90;57.04;102182.47;5063082;28;45541;-49
2022/06/13 07:45:55;;;;;;;;;6.50;4.50;;;;;19.87;57.38;102185.41;5063113;28;46466;-50
2022/06/13 07:48:21;;;;;;;;;5.00;4.00;;;;;19.88;56.75;102184.41;5062816;28;45247;-46
2022/06/13 07:50:47;;;;;;;;;8.00;5.25;;;;;19.94;56.70;102184.81;5069380;28;45419;-49
2022/06/13 07:53:12;;;;;;;;;7.00;3.75;;;;;19.99;56.85;102184.47;5071478;28;45809;-50
2022/06/13 07:55:39;;;;;;;;;7.50;4.00;;;;;20.01;56.60;102183.38;5070187;27;45341;-50
2022/06/13 07:58:05;;;;;;;;;5.25;5.00;;;;;20.09;56.55;102185.47;5068986;28;45333;-48
2022/06/13 08:00:35;;;;;;;;;8.25;4.50;;;;;20.17;56.49;102184.88;5072741;28;45455;-51
2022/06/13 08:03:02;;;;;;;;;4.75;4.00;;;;;20.22;56.37;102193.38;5070587;28;45455;-50
2022/06/13 08:05:29;;;;;;;;;7.75;5.00;;;;;20.26;56.30;102192.19;5070776;28;46090;-49
2022/06/13 08:07:55;;;;;;;;;7.00;6.50;;;;;20.28;56.18;102193.78;5064315;28;45456;-47
2022/06/13 08:10:21;;;;;;;;;6.00;3.75;;;;;20.28;55.62;102192.94;5071658;28;45366;-52
2022/06/13 08:12:47;;;;;;;;;16.50;12.75;;;;;20.31;55.66;102198.06;5070558;28;45544;-51
2022/06/13 08:15:14;;;;;;;;;19.75;14.00;;;;;20.35;55.35;102191.47;5068536;28;46513;-50
2022/06/13 08:17:41;;;;;;;;;26.75;24.50;;;;;20.37;55.12;102192.22;5071799;28;45218;-48
2022/06/13 08:20:09;;;;;;;;;3.75;3.75;;;;;20.32;54.91;102189.91;5072146;27;45720;-47
2022/06/13 08:22:47;;;;;;;;;4.00;3.25;;;;;20.35;55.14;102186.97;5071382;28;45537;-48
2022/06/13 08:25:18;;;;;;;;;5.25;4.00;;;;;20.41;54.72;102187.50;5086104;27;45644;-47
2022/06/13 08:27:44;;;;;;;;;2.75;1.00;;;;;20.45;54.59;102194.31;5071109;28;45385;-51
2022/06/13 08:30:10;;;;;;;;;6.00;3.00;;;;;20.50;54.48;102197.50;5071767;28;45473;-48
2022/06/13 08:32:35;;;;;;;;;3.75;3.75;;;;;20.50;54.43;102190.31;5071933;28;45558;-48
2022/06/13 08:35:01;;;;;;;;;5.00;3.00;;;;;20.53;54.53;102199.94;5062764;28;46026;-54
2022/06/13 08:37:26;;;;;;;;;5.00;2.00;;;;;20.55;54.23;102209.56;5060126;28;45619;-48
2022/06/13 08:39:52;;;;;;;;;3.50;3.00;;;;;20.55;53.56;102195.34;5058849;28;45620;-49
2022/06/13 08:42:26;;;;;;;;;7.00;6.00;;;;;20.56;53.59;102189.84;5059961;28;45713;-53
2022/06/13 08:45:02;;;;;;;;;8.00;4.50;;;;;20.59;53.66;102194.09;5062284;28;45486;-53
2022/06/13 08:47:39;;;;;;;;;8.00;5.25;;;;;20.58;53.39;102189.72;5061750;28;45494;-51
2022/06/13 08:50:04;;;;;;;;;3.75;2.00;;;;;20.57;53.43;102196.06;5060357;28;45342;-52
2022/06/13 08:53:22;;;;;;;;;4.00;2.00;;;;;20.57;53.05;102188.88;5062133;28;45351;-50
2022/06/13 08:55:52;;;;;;;;;4.50;3.00;;;;;20.57;52.67;102191.56;5052803;28;45466;-52
2022/06/13 08:58:27;;;;;;;;;5.00;4.00;;;;;20.61;52.91;102194.81;5062116;28;45357;-52
2022/06/13 09:00:59;;;;;;;;;8.25;3.75;;;;;20.63;52.63;102195.59;5061684;28;45323;-54
2022/06/13 09:03:38;;;;;;;;;3.00;3.00;;;;;20.62;52.37;102194.72;5061674;28;45244;-52
2022/06/13 09:06:17;;;;;;;;;5.50;2.25;;;;;20.68;52.34;102195.19;5062011;28;45467;-49
2022/06/13 09:08:59;;;;;;;;;4.75;2.25;;;;;20.72;52.20;102194.00;5061279;28;45394;-49
2022/06/13 09:11:41;;;;;;;;;8.25;3.25;;;;;20.76;51.93;102190.94;5061772;28;45214;-51
2022/06/13 09:14:09;;;;;;;;;6.00;2.75;;;;;20.82;52.10;102192.28;5062038;28;45329;-50
2022/06/13 09:16:39;;;;;;;;;4.00;4.00;;;;;20.92;52.09;102195.94;5061415;28;45437;-49
2022/06/13 09:19:23;;;;;;;;;3.50;3.00;;;;;21.00;51.67;102196.16;5061701;28;45457;-49
2022/06/13 09:22:04;;;;;;;;;5.25;2.00;;;;;21.02;51.55;102199.59;5059094;28;45275;-49
2022/06/13 09:24:48;;;;;;;;;8.25;6.00;;;;;21.06;51.67;102195.69;5060219;28;45565;-49
2022/06/13 09:27:24;;;;;;;;;6.00;3.00;;;;;21.13;51.33;102199.56;5061569;28;45367;-49
2022/06/13 09:30:04;;;;;;;;;2.50;2.25;;;;;21.19;51.00;102193.72;5061579;28;45212;-51
2022/06/13 09:33:08;;;;;;;;;3.00;1.75;;;;;21.26;51.04;102198.59;5061588;28;45328;-51
2022/06/13 09:35:43;;;;;;;;;3.50;3.50;;;;;21.27;50.68;102192.25;5047650;28;45550;-55
2022/06/13 09:38:15;;;;;;;;;3.50;3.00;;;;;21.31;50.58;102191.88;5060391;28;45626;-51
2022/06/13 09:40:58;;;;;;;;;2.25;2.25;;;;;21.34;50.36;102193.50;5061022;28;45244;-53
2022/06/13 09:43:48;;;;;;;;;6.00;3.00;;;;;21.43;50.25;102190.91;5061389;28;45316;-52
2022/06/13 09:46:37;;;;;;;;;2.25;2.25;;;;;21.57;50.38;102205.84;5061178;28;45381;-49
2022/06/13 09:49:40;;;;;;;;;3.00;1.50;;;;;21.70;50.14;102209.22;5060857;28;46116;-49
2022/06/13 09:52:27;;;;;;;;;8.00;3.00;;;;;21.76;50.15;102199.81;5060622;28;45296;-49
2022/06/13 09:55:12;;;;;;;;;2.00;2.00;;;;;21.76;50.06;102205.16;5061080;28;45235;-52
2022/06/13 09:57:58;;;;;;;;;3.75;2.25;;;;;21.80;49.72;102195.03;5061067;28;45229;-52
2022/06/13 10:00:35;;;;;;;;;4.25;2.00;;;;;21.85;49.75;102206.22;5060790;28;45228;-51
2022/06/13 10:03:19;;;;;;;;;4.00;1.75;;;;;21.90;49.79;102195.97;5060865;28;45506;-54
2022/06/13 10:06:02;;;;;;;;;4.75;3.50;;;;;21.90;49.33;102194.13;5061010;28;45153;-54
2022/06/13 10:08:40;;;;;;;;;30.00;27.25;;;;;21.93;49.30;102201.06;5060524;28;45294;-51
2022/06/13 10:11:17;;;;;;;;;2.25;2.00;;;;;21.98;49.47;102180.06;5059387;28;48684;-53
2022/06/13 10:14:05;;;;;;;;;6.25;4.00;;;;;22.01;49.59;102193.22;5060616;28;45591;-52
2022/06/13 10:17:02;;;;;;;;;2.75;2.50;;;;;22.10;49.27;102184.41;5060707;28;45496;-51
2022/06/13 10:19:53;;;;;;;;;3.75;3.00;;;;;22.12;49.24;102187.84;5060821;28;45217;-52
2022/06/13 10:22:45;;;;;;;;;3.75;2.75;;;;;22.08;49.11;102190.91;5060111;28;45323;-54
2022/06/13 10:25:31;;;;;;;;;5.50;4.00;;;;;22.11;49.11;102188.81;5056978;28;45240;-53
2022/06/13 10:28:29;;;;;;;;;2.75;2.75;;;;;22.14;48.94;102188.56;5060574;28;45354;-53
2022/06/13 10:31:15;;;;;;;;;3.00;1.00;;;;;22.15;48.90;102190.25;5060639;28;45382;-51
2022/06/13 10:34:10;;;;;;;;;5.50;4.75;;;;;22.11;48.57;102186.13;5060627;28;45419;-51
2022/06/13 10:37:13;;;;;;;;;6.75;2.75;;;;;22.16;48.41;102186.59;5060245;28;45371;-53
2022/06/13 10:39:40;;;;;;;;;7.50;7.50;;;;;22.23;48.49;102187.75;5060191;28;45271;-49
2022/06/13 10:42:16;;;;;;;;;5.00;3.00;;;;;22.27;47.98;102191.03;5058896;28;45357;-50
2022/06/13 10:44:42;;;;;;;;;6.25;2.75;;;;;22.26;48.87;102192.00;5058658;28;45585;-50
2022/06/13 10:47:18;;;;;;;;;1.75;1.75;;;;;22.19;48.36;102183.63;5060295;28;45304;-53
2022/06/13 10:49:54;;;;;;;;;3.00;2.75;;;;;22.23;48.41;102181.56;5047390;28;45295;-52
2022/06/13 10:52:23;;;;;;;;;4.00;3.00;;;;;22.34;48.45;102181.47;5060063;28;45285;-51
2022/06/13 10:54:55;;;;;;;;;2.75;1.75;;;;;22.43;48.43;102180.66;5059900;28;46069;-54
2022/06/13 10:57:31;;;;;;;;;14.75;13.00;;;;;22.52;48.27;102185.25;5059746;28;45224;-54
2022/06/13 11:00:23;;;;;;;;;9.25;7.00;;;;;22.53;48.04;102172.69;5059988;28;45322;-52
2022/06/13 11:02:49;;;;;;;;;3.00;2.50;;;;;22.54;47.63;102179.75;5058716;28;45320;-50
2022/06/13 11:05:26;;;;;;;;;6.25;5.00;;;;;22.60;47.64;102170.31;5059796;28;46294;-53
2022/06/13 11:07:58;;;;;;;;;5.00;3.00;;;;;22.66;47.72;102173.28;5060037;28;45488;-50
2022/06/13 11:10:37;;;;;;;;;2.00;1.25;;;;;22.73;48.02;102178.97;5059941;28;45517;-53
2022/06/13 11:13:12;;;;;;;;;2.50;2.50;;;;;22.84;47.19;102179.75;5059022;28;45685;-50
2022/06/13 11:24:24;;;;;;;;;6.50;3.75;;;;;23.20;47.41;102179.31;5059950;28;45403;-52
2022/06/13 11:29:37;;;;;;;;;3.00;3.00;;;;;23.20;46.89;102174.78;5059951;28;45496;-52
2022/06/13 11:32:06;;;;;;;;;3.00;2.00;;;;;23.20;46.81;102165.88;5059767;28;45283;-53
2022/06/13 11:34:35;;;;;;;;;3.50;2.25;;;;;23.19;46.65;102165.03;5060618;28;45325;-52
2022/06/13 11:37:13;;;;;;;;;4.50;2.75;;;;;23.30;47.06;102172.09;5063277;28;46126;-50
2022/06/13 11:39:48;;;;;;;;;4.75;2.00;;;;;23.38;46.85;102170.44;5061523;28;45295;-48
2022/06/13 11:42:30;;;;;;;;;7.00;3.00;;;;;23.33;46.81;102161.09;5063114;28;45284;-53
2022/06/13 11:45:00;;;;;;;;;4.00;2.75;;;;;23.19;46.80;102162.31;5063273;28;45489;-50
2022/06/13 11:47:40;;;;;;;;;4.00;2.75;;;;;23.25;46.49;102160.94;5062749;28;45331;-49
2022/06/13 11:50:20;;;;;;;;;6.25;3.00;;;;;23.23;46.30;102160.22;5062872;28;45272;-53
2022/06/13 11:55:36;;;;;;;;;4.50;3.00;;;;;23.34;46.75;102158.25;5062950;28;45323;-50
2022/06/13 11:58:04;;;;;;;;;6.00;4.00;;;;;23.39;46.19;102152.47;5062771;28;45341;-54
2022/06/13 12:00:35;;;;;;;;;5.00;3.25;;;;;23.44;46.70;102152.88;5062799;28;45433;-52
2022/06/13 12:03:20;;;;;;;;;3.50;2.75;;;;;23.47;46.54;102143.69;5062935;28;45284;-51
2022/06/13 12:05:50;;;;;;;;;3.25;2.50;;;;;23.49;46.37;102153.31;5062940;28;45260;-48
2022/06/13 12:08:16;;;;;;;;;2.25;2.25;;;;;23.51;45.81;102154.00;5062377;28;46071;-50
2022/06/13 12:10:53;;;;;;;;;4.00;3.25;;;;;23.57;46.03;102147.22;5062796;28;45373;-48
2022/06/13 12:13:20;;;;;;;;;4.25;3.00;;;;;23.63;45.73;102141.31;5062725;28;45331;-50
2022/06/13 12:16:14;;;;;;;;;2.75;2.75;;;;;23.70;46.15;102138.88;5062803;28;45522;-49
2022/06/13 12:18:56;;;;;;;;;4.00;3.00;;;;;23.78;46.11;102130.94;5060957;28;45419;-55
2022/06/13 12:21:32;;;;;;;;;2.00;2.00;;;;;23.83;45.65;102134.06;5065984;28;45229;-52